Flight Track Log - Related Links

Times and Time Zones

All times are in EDT time to prevent confusion due to time zone crossing. See the WEW1540 flight status page for this flight to view local times or setup timezone preferences in your user account.

Time Position Orientation Groundspeed Altitude Reporting Facility
EDT Latitude Longitude Course Direction KTS MPH feet Rate Location/Type
Fri 08:01:21 PM 50.3167 -107.4167 77° East 140 161 9,000  Level Winnipeg Center
Fri 08:02:21 PM 50.3333 -107.3500 69° East 170 196 9,000  Level Winnipeg Center
Fri 08:03:21 PM 50.3333 -107.2667 90° East 180 207 9,000  Level Winnipeg Center
Fri 08:04:21 PM 50.3667 -107.1833 58° Northeast 190 219 9,000  Level Winnipeg Center
Fri 08:05:00 PM 50.3955 -106.8834 77° East  Level FlightAware Approximate
Fri 08:05:21 PM 50.3667 -107.1167 90° East 190 219 9,000  Level Winnipeg Center
Fri 08:06:00 PM 50.4058 -106.8105 77° East  Level FlightAware Approximate
Fri 08:06:21 PM 50.3833 -107.0333 73° East 190 219 9,000  Level Winnipeg Center
Fri 08:07:21 PM 50.3833 -106.9333 90° East 200 230 9,000  Level Winnipeg Center
Fri 08:08:21 PM 50.3833 -106.8500 90° East 200 230 9,000  Level Winnipeg Center
Fri 08:09:21 PM 50.4167 -106.7833 52° Northeast 190 219 9,000  Level Winnipeg Center
Fri 08:10:21 PM 50.4167 -106.7000 90° East 190 219 9,000  Level Winnipeg Center
Fri 08:11:21 PM 50.4333 -106.6000 75° East 200 230 9,000  Level Winnipeg Center
Fri 08:12:21 PM 50.4333 -106.5167 90° East 200 230 9,000  Level Winnipeg Center
Fri 08:13:21 PM 50.4500 -106.4500 69° East 190 219 9,000  Level Winnipeg Center
Fri 08:14:21 PM 50.4500 -106.3667 90° East 200 230 9,000  Level Winnipeg Center
Fri 08:15:21 PM 50.4500 -106.2667 90° East 200 230 9,000  Level Winnipeg Center
Fri 08:16:21 PM 50.4500 -106.1833 90° East 210 242 9,000  Level Winnipeg Center
Fri 08:17:21 PM 50.4333 -106.1000 107° East 210 242 9,000 -50 Level Winnipeg Center
Fri 08:18:21 PM 50.4333 -106.0167 90° East 200 230 8,900 -50 Descending Winnipeg Center
Fri 08:19:21 PM 50.4167 -105.9167 105° East 200 230 8,900  Level Winnipeg Center
Fri 08:20:21 PM 50.4167 -105.8333 90° East 210 242 8,900  Level Winnipeg Center
Fri 08:21:21 PM 50.4167 -105.7500 90° East 210 242 8,900  Level Winnipeg Center
Fri 08:22:21 PM 50.4000 -105.6500 105° East 210 242 8,900  Level Winnipeg Center
Fri 08:23:21 PM 50.4000 -105.5667 90° East 200 230 8,900 -50 Level Winnipeg Center
Fri 08:24:21 PM 50.3833 -105.4833 107° East 200 230 8,800 -500 Descending Winnipeg Center
Fri 08:25:21 PM 50.4000 -105.3833 75° East 210 242 7,900 -800 Descending Winnipeg Center
Fri 08:26:21 PM 50.3833 -105.3000 107° East 220 253 7,200 -850 Descending Winnipeg Center
Fri 08:27:21 PM 50.3667 -105.1833 103° East 220 253 6,200 -950 Descending Winnipeg Center
Fri 08:28:21 PM 50.3667 -105.1000 90° East 210 242 5,300 -900 Descending Winnipeg Center
Fri 08:29:21 PM 50.3667 -105.0000 90° East 210 242 4,400 -700 Descending Winnipeg Center
Fri 08:30:21 PM 50.3500 -104.9167 107° East 200 230 3,900 -600 Descending Winnipeg Center
Fri 08:31:21 PM 50.3667 -104.8500 69° East 190 219 3,200 -500 Descending Winnipeg Center
Fri 08:32:21 PM 50.3667 -104.7667 90° East 180 207 2,900 -150 Descending Winnipeg Center
Fri 08:33:21 PM 50.3667 -104.7167 90° East 160 184 2,900  Level Winnipeg Center
Fri 08:34:21 PM 50.3667 -104.6333 90° East 140 161 2,900 -250 Level Winnipeg Center
Fri 08:35:21 PM 50.4000 -104.6333 360° North 110 127 2,400 -500 Descending Winnipeg Center
Fri 08:36:21 PM 50.4000 -104.6667 270° West 90 104 1,900 -500 Descending Winnipeg Center

Login

Don't have an account? Register now (free) for customized features, flight alerts, and more!